sensor_id;sensor_type;location;lat;lon;timestamp;P1;durP1;ratioP1;P2;durP2;ratioP2
52554;SDS011;38455;52.710;6.502;2022-11-15T00:01:50;30.92;;;16.50;;
52554;SDS011;38455;52.710;6.502;2022-11-15T00:04:16;21.52;;;14.77;;
52554;SDS011;38455;52.710;6.502;2022-11-15T00:06:41;26.20;;;15.88;;
52554;SDS011;38455;52.710;6.502;2022-11-15T00:09:07;25.45;;;16.52;;
52554;SDS011;38455;52.710;6.502;2022-11-15T00:11:33;27.98;;;16.45;;
52554;SDS011;38455;52.710;6.502;2022-11-15T00:13:59;27.95;;;16.85;;
52554;SDS011;38455;52.710;6.502;2022-11-15T00:16:27;28.35;;;16.80;;
52554;SDS011;38455;52.710;6.502;2022-11-15T00:18:53;25.50;;;16.27;;
52554;SDS011;38455;52.710;6.502;2022-11-15T00:21:18;28.10;;;16.35;;
52554;SDS011;38455;52.710;6.502;2022-11-15T00:23:44;30.08;;;17.02;;
52554;SDS011;38455;52.710;6.502;2022-11-15T00:26:11;28.80;;;16.73;;
52554;SDS011;38455;52.710;6.502;2022-11-15T00:28:38;25.73;;;15.60;;
52554;SDS011;38455;52.710;6.502;2022-11-15T00:31:04;33.45;;;18.17;;
52554;SDS011;38455;52.710;6.502;2022-11-15T00:33:32;30.50;;;16.85;;
52554;SDS011;38455;52.710;6.502;2022-11-15T00:38:32;29.60;;;16.90;;
52554;SDS011;38455;52.710;6.502;2022-11-15T00:40:59;37.78;;;16.58;;
52554;SDS011;38455;52.710;6.502;2022-11-15T00:43:25;28.17;;;15.60;;
52554;SDS011;38455;52.710;6.502;2022-11-15T00:45:51;25.63;;;16.92;;
52554;SDS011;38455;52.710;6.502;2022-11-15T00:48:17;29.08;;;17.25;;
52554;SDS011;38455;52.710;6.502;2022-11-15T00:50:42;27.88;;;17.15;;
52554;SDS011;38455;52.710;6.502;2022-11-15T00:53:08;29.85;;;16.63;;
52554;SDS011;38455;52.710;6.502;2022-11-15T00:55:34;32.78;;;17.05;;
52554;SDS011;38455;52.710;6.502;2022-11-15T00:57:59;36.25;;;17.98;;
52554;SDS011;38455;52.710;6.502;2022-11-15T01:00:25;32.65;;;17.33;;
52554;SDS011;38455;52.710;6.502;2022-11-15T01:02:51;33.97;;;17.30;;
52554;SDS011;38455;52.710;6.502;2022-11-15T01:05:16;31.52;;;18.63;;
52554;SDS011;38455;52.710;6.502;2022-11-15T01:07:42;30.65;;;16.95;;
52554;SDS011;38455;52.710;6.502;2022-11-15T01:10:08;31.15;;;16.65;;
52554;SDS011;38455;52.710;6.502;2022-11-15T01:12:34;29.90;;;17.50;;
52554;SDS011;38455;52.710;6.502;2022-11-15T01:14:59;34.80;;;17.48;;
52554;SDS011;38455;52.710;6.502;2022-11-15T01:17:25;30.05;;;18.15;;
52554;SDS011;38455;52.710;6.502;2022-11-15T01:19:51;38.25;;;16.92;;
52554;SDS011;38455;52.710;6.502;2022-11-15T01:22:17;29.83;;;17.60;;
52554;SDS011;38455;52.710;6.502;2022-11-15T01:24:42;31.58;;;15.68;;
52554;SDS011;38455;52.710;6.502;2022-11-15T01:27:08;36.15;;;17.85;;
52554;SDS011;38455;52.710;6.502;2022-11-15T01:29:34;31.80;;;17.92;;
52554;SDS011;38455;52.710;6.502;2022-11-15T01:31:59;29.48;;;17.17;;
52554;SDS011;38455;52.710;6.502;2022-11-15T01:34:25;28.23;;;16.08;;
52554;SDS011;38455;52.710;6.502;2022-11-15T01:36:51;29.27;;;16.35;;
52554;SDS011;38455;52.710;6.502;2022-11-15T01:39:17;30.15;;;17.38;;
52554;SDS011;38455;52.710;6.502;2022-11-15T01:41:43;29.85;;;16.92;;
52554;SDS011;38455;52.710;6.502;2022-11-15T01:46:56;33.47;;;17.55;;
52554;SDS011;38455;52.710;6.502;2022-11-15T01:49:24;33.88;;;16.00;;
52554;SDS011;38455;52.710;6.502;2022-11-15T01:51:51;30.65;;;16.40;;
52554;SDS011;38455;52.710;6.502;2022-11-15T01:54:17;29.02;;;16.33;;
52554;SDS011;38455;52.710;6.502;2022-11-15T01:56:47;32.53;;;18.00;;
52554;SDS011;38455;52.710;6.502;2022-11-15T01:59:40;28.58;;;16.35;;
52554;SDS011;38455;52.710;6.502;2022-11-15T02:02:10;31.88;;;18.88;;
52554;SDS011;38455;52.710;6.502;2022-11-15T02:04:37;33.45;;;17.05;;
52554;SDS011;38455;52.710;6.502;2022-11-15T02:07:09;40.80;;;18.80;;
52554;SDS011;38455;52.710;6.502;2022-11-15T02:09:37;36.78;;;18.05;;
52554;SDS011;38455;52.710;6.502;2022-11-15T02:12:03;32.22;;;17.42;;
52554;SDS011;38455;52.710;6.502;2022-11-15T02:14:31;36.38;;;18.13;;
52554;SDS011;38455;52.710;6.502;2022-11-15T02:17:04;47.85;;;19.20;;
52554;SDS011;38455;52.710;6.502;2022-11-15T02:22:35;41.70;;;19.77;;
52554;SDS011;38455;52.710;6.502;2022-11-15T02:33:35;46.78;;;21.38;;
52554;SDS011;38455;52.710;6.502;2022-11-15T02:36:29;48.13;;;21.65;;
52554;SDS011;38455;52.710;6.502;2022-11-15T02:41:54;48.13;;;21.30;;
52554;SDS011;38455;52.710;6.502;2022-11-15T02:44:35;47.67;;;22.23;;
52554;SDS011;38455;52.710;6.502;2022-11-15T02:47:05;54.58;;;22.88;;
52554;SDS011;38455;52.710;6.502;2022-11-15T02:49:53;42.65;;;20.25;;
52554;SDS011;38455;52.710;6.502;2022-11-15T02:52:22;48.03;;;23.27;;
52554;SDS011;38455;52.710;6.502;2022-11-15T02:54:53;50.38;;;23.30;;
52554;SDS011;38455;52.710;6.502;2022-11-15T03:00:03;51.67;;;22.38;;
52554;SDS011;38455;52.710;6.502;2022-11-15T03:02:45;49.42;;;22.67;;
52554;SDS011;38455;52.710;6.502;2022-11-15T03:05:53;49.75;;;23.00;;
52554;SDS011;38455;52.710;6.502;2022-11-15T03:08:52;48.70;;;23.02;;
52554;SDS011;38455;52.710;6.502;2022-11-15T03:11:27;56.50;;;24.42;;
52554;SDS011;38455;52.710;6.502;2022-11-15T03:19:19;51.03;;;23.70;;
52554;SDS011;38455;52.710;6.502;2022-11-15T03:22:07;58.92;;;24.45;;
52554;SDS011;38455;52.710;6.502;2022-11-15T03:24:36;64.05;;;25.88;;
52554;SDS011;38455;52.710;6.502;2022-11-15T03:27:03;62.53;;;25.50;;
52554;SDS011;38455;52.710;6.502;2022-11-15T03:29:33;64.55;;;25.85;;
52554;SDS011;38455;52.710;6.502;2022-11-15T03:32:03;58.85;;;25.75;;
52554;SDS011;38455;52.710;6.502;2022-11-15T03:37:24;69.78;;;25.33;;
52554;SDS011;38455;52.710;6.502;2022-11-15T03:40:16;69.35;;;26.95;;
52554;SDS011;38455;52.710;6.502;2022-11-15T03:45:22;82.13;;;28.20;;
52554;SDS011;38455;52.710;6.502;2022-11-15T03:47:53;61.22;;;27.15;;
52554;SDS011;38455;52.710;6.502;2022-11-15T03:50:40;80.63;;;27.92;;
52554;SDS011;38455;52.710;6.502;2022-11-15T03:53:07;85.18;;;31.25;;
52554;SDS011;38455;52.710;6.502;2022-11-15T03:55:34;80.03;;;30.27;;
52554;SDS011;38455;52.710;6.502;2022-11-15T03:58:00;76.40;;;31.40;;
52554;SDS011;38455;52.710;6.502;2022-11-15T04:00:26;78.85;;;31.27;;
52554;SDS011;38455;52.710;6.502;2022-11-15T04:02:53;87.78;;;31.67;;
52554;SDS011;38455;52.710;6.502;2022-11-15T04:05:18;75.47;;;31.70;;
52554;SDS011;38455;52.710;6.502;2022-11-15T04:07:44;93.00;;;30.90;;
52554;SDS011;38455;52.710;6.502;2022-11-15T04:10:10;90.78;;;31.70;;
52554;SDS011;38455;52.710;6.502;2022-11-15T04:12:38;79.10;;;32.05;;
52554;SDS011;38455;52.710;6.502;2022-11-15T04:17:35;74.15;;;31.02;;
52554;SDS011;38455;52.710;6.502;2022-11-15T04:20:03;90.38;;;34.20;;
52554;SDS011;38455;52.710;6.502;2022-11-15T04:22:48;79.22;;;32.33;;
52554;SDS011;38455;52.710;6.502;2022-11-15T04:25:36;77.85;;;31.25;;
52554;SDS011;38455;52.710;6.502;2022-11-15T04:28:01;81.18;;;33.50;;
52554;SDS011;38455;52.710;6.502;2022-11-15T04:30:27;87.93;;;33.90;;
52554;SDS011;38455;52.710;6.502;2022-11-15T04:32:53;80.15;;;34.00;;
52554;SDS011;38455;52.710;6.502;2022-11-15T04:35:18;78.28;;;31.65;;
52554;SDS011;38455;52.710;6.502;2022-11-15T04:37:44;76.53;;;33.83;;
52554;SDS011;38455;52.710;6.502;2022-11-15T04:40:10;78.70;;;33.25;;
52554;SDS011;38455;52.710;6.502;2022-11-15T04:42:36;77.80;;;32.42;;
52554;SDS011;38455;52.710;6.502;2022-11-15T04:45:01;72.18;;;32.85;;
52554;SDS011;38455;52.710;6.502;2022-11-15T04:47:27;72.95;;;33.67;;
52554;SDS011;38455;52.710;6.502;2022-11-15T04:49:54;91.47;;;36.13;;
52554;SDS011;38455;52.710;6.502;2022-11-15T04:52:20;81.55;;;34.50;;
52554;SDS011;38455;52.710;6.502;2022-11-15T04:54:45;80.75;;;35.85;;
52554;SDS011;38455;52.710;6.502;2022-11-15T04:57:11;87.57;;;33.95;;
52554;SDS011;38455;52.710;6.502;2022-11-15T04:59:37;73.43;;;34.72;;
52554;SDS011;38455;52.710;6.502;2022-11-15T05:02:02;76.00;;;35.13;;
52554;SDS011;38455;52.710;6.502;2022-11-15T05:04:28;77.35;;;34.35;;
52554;SDS011;38455;52.710;6.502;2022-11-15T05:06:53;74.28;;;33.00;;
52554;SDS011;38455;52.710;6.502;2022-11-15T05:09:19;71.63;;;33.10;;
52554;SDS011;38455;52.710;6.502;2022-11-15T05:11:46;72.30;;;32.40;;
52554;SDS011;38455;52.710;6.502;2022-11-15T05:14:12;62.35;;;29.73;;
52554;SDS011;38455;52.710;6.502;2022-11-15T05:16:38;65.32;;;30.83;;
52554;SDS011;38455;52.710;6.502;2022-11-15T05:19:05;60.80;;;30.00;;
52554;SDS011;38455;52.710;6.502;2022-11-15T05:21:31;62.92;;;30.23;;
52554;SDS011;38455;52.710;6.502;2022-11-15T05:23:57;56.60;;;28.55;;
52554;SDS011;38455;52.710;6.502;2022-11-15T05:26:23;64.93;;;29.73;;
52554;SDS011;38455;52.710;6.502;2022-11-15T05:28:55;59.83;;;29.40;;
52554;SDS011;38455;52.710;6.502;2022-11-15T05:31:22;60.80;;;29.63;;
52554;SDS011;38455;52.710;6.502;2022-11-15T05:33:49;60.00;;;30.33;;
52554;SDS011;38455;52.710;6.502;2022-11-15T05:38:48;60.13;;;30.00;;
52554;SDS011;38455;52.710;6.502;2022-11-15T05:41:15;64.63;;;30.17;;
52554;SDS011;38455;52.710;6.502;2022-11-15T05:43:44;59.45;;;29.20;;
52554;SDS011;38455;52.710;6.502;2022-11-15T05:46:11;66.63;;;29.95;;
52554;SDS011;38455;52.710;6.502;2022-11-15T05:48:38;59.03;;;28.45;;
52554;SDS011;38455;52.710;6.502;2022-11-15T05:51:08;58.88;;;28.85;;
52554;SDS011;38455;52.710;6.502;2022-11-15T05:53:34;66.20;;;30.38;;
52554;SDS011;38455;52.710;6.502;2022-11-15T05:56:02;65.63;;;31.05;;
52554;SDS011;38455;52.710;6.502;2022-11-15T05:58:30;61.28;;;30.67;;
52554;SDS011;38455;52.710;6.502;2022-11-15T06:00:57;64.95;;;29.98;;
52554;SDS011;38455;52.710;6.502;2022-11-15T06:03:22;61.08;;;28.48;;
52554;SDS011;38455;52.710;6.502;2022-11-15T06:05:48;66.65;;;29.67;;
52554;SDS011;38455;52.710;6.502;2022-11-15T06:08:14;62.70;;;28.80;;
52554;SDS011;38455;52.710;6.502;2022-11-15T06:10:39;65.80;;;29.27;;
52554;SDS011;38455;52.710;6.502;2022-11-15T06:13:05;66.72;;;28.55;;
52554;SDS011;38455;52.710;6.502;2022-11-15T06:15:34;59.13;;;29.02;;
52554;SDS011;38455;52.710;6.502;2022-11-15T06:18:00;61.42;;;27.42;;
52554;SDS011;38455;52.710;6.502;2022-11-15T06:20:26;57.72;;;27.65;;
52554;SDS011;38455;52.710;6.502;2022-11-15T06:22:59;58.35;;;29.23;;
52554;SDS011;38455;52.710;6.502;2022-11-15T06:25:27;53.92;;;27.38;;
52554;SDS011;38455;52.710;6.502;2022-11-15T06:27:54;59.55;;;28.00;;
52554;SDS011;38455;52.710;6.502;2022-11-15T06:30:21;61.08;;;27.80;;
52554;SDS011;38455;52.710;6.502;2022-11-15T06:32:47;55.80;;;28.35;;
52554;SDS011;38455;52.710;6.502;2022-11-15T06:35:13;55.80;;;26.45;;
52554;SDS011;38455;52.710;6.502;2022-11-15T06:37:39;56.05;;;26.55;;
52554;SDS011;38455;52.710;6.502;2022-11-15T06:40:05;53.83;;;26.15;;
52554;SDS011;38455;52.710;6.502;2022-11-15T06:42:32;54.00;;;26.20;;
52554;SDS011;38455;52.710;6.502;2022-11-15T06:44:58;50.70;;;27.02;;
52554;SDS011;38455;52.710;6.502;2022-11-15T06:47:23;48.33;;;25.80;;
52554;SDS011;38455;52.710;6.502;2022-11-15T06:49:49;46.17;;;25.35;;
52554;SDS011;38455;52.710;6.502;2022-11-15T06:52:15;52.17;;;25.17;;
52554;SDS011;38455;52.710;6.502;2022-11-15T06:54:43;44.97;;;25.10;;
52554;SDS011;38455;52.710;6.502;2022-11-15T06:57:09;48.35;;;25.60;;
52554;SDS011;38455;52.710;6.502;2022-11-15T06:59:35;50.67;;;25.27;;
52554;SDS011;38455;52.710;6.502;2022-11-15T07:02:01;50.17;;;26.55;;
52554;SDS011;38455;52.710;6.502;2022-11-15T07:04:27;46.67;;;24.50;;
52554;SDS011;38455;52.710;6.502;2022-11-15T07:06:52;44.45;;;23.60;;
52554;SDS011;38455;52.710;6.502;2022-11-15T07:09:18;43.10;;;24.80;;
52554;SDS011;38455;52.710;6.502;2022-11-15T07:11:43;45.63;;;24.90;;
52554;SDS011;38455;52.710;6.502;2022-11-15T07:14:09;49.05;;;25.05;;
52554;SDS011;38455;52.710;6.502;2022-11-15T07:16:36;44.33;;;24.38;;
52554;SDS011;38455;52.710;6.502;2022-11-15T07:19:01;44.38;;;24.35;;
52554;SDS011;38455;52.710;6.502;2022-11-15T07:21:27;52.28;;;25.80;;
52554;SDS011;38455;52.710;6.502;2022-11-15T07:23:53;47.78;;;24.67;;
52554;SDS011;38455;52.710;6.502;2022-11-15T07:26:19;43.53;;;24.58;;
52554;SDS011;38455;52.710;6.502;2022-11-15T07:28:45;42.22;;;22.52;;
52554;SDS011;38455;52.710;6.502;2022-11-15T07:31:10;43.22;;;23.95;;
52554;SDS011;38455;52.710;6.502;2022-11-15T07:33:36;43.03;;;23.42;;
52554;SDS011;38455;52.710;6.502;2022-11-15T07:36:02;46.63;;;23.23;;
52554;SDS011;38455;52.710;6.502;2022-11-15T07:38:29;42.20;;;23.38;;
52554;SDS011;38455;52.710;6.502;2022-11-15T07:40:56;42.92;;;24.35;;
52554;SDS011;38455;52.710;6.502;2022-11-15T07:43:23;46.13;;;22.73;;
52554;SDS011;38455;52.710;6.502;2022-11-15T07:45:49;41.00;;;22.90;;
52554;SDS011;38455;52.710;6.502;2022-11-15T07:48:14;43.88;;;22.73;;
52554;SDS011;38455;52.710;6.502;2022-11-15T07:50:40;49.60;;;22.42;;
52554;SDS011;38455;52.710;6.502;2022-11-15T07:53:07;39.67;;;22.25;;
52554;SDS011;38455;52.710;6.502;2022-11-15T07:55:33;46.67;;;23.27;;
52554;SDS011;38455;52.710;6.502;2022-11-15T07:58:00;46.60;;;22.75;;
52554;SDS011;38455;52.710;6.502;2022-11-15T08:00:29;43.70;;;23.33;;
52554;SDS011;38455;52.710;6.502;2022-11-15T08:03:05;40.90;;;23.50;;
52554;SDS011;38455;52.710;6.502;2022-11-15T08:05:32;40.90;;;23.75;;
52554;SDS011;38455;52.710;6.502;2022-11-15T08:07:58;40.45;;;22.30;;
52554;SDS011;38455;52.710;6.502;2022-11-15T08:10:25;42.38;;;23.92;;
52554;SDS011;38455;52.710;6.502;2022-11-15T08:12:58;40.13;;;23.30;;
52554;SDS011;38455;52.710;6.502;2022-11-15T08:15:25;42.75;;;23.55;;
52554;SDS011;38455;52.710;6.502;2022-11-15T08:17:55;40.35;;;24.13;;
52554;SDS011;38455;52.710;6.502;2022-11-15T08:20:26;42.42;;;23.63;;
52554;SDS011;38455;52.710;6.502;2022-11-15T08:22:55;41.40;;;22.42;;
52554;SDS011;38455;52.710;6.502;2022-11-15T08:25:25;43.08;;;23.17;;
52554;SDS011;38455;52.710;6.502;2022-11-15T08:27:56;43.78;;;23.23;;
52554;SDS011;38455;52.710;6.502;2022-11-15T08:30:24;40.92;;;23.50;;
52554;SDS011;38455;52.710;6.502;2022-11-15T08:32:50;45.15;;;23.13;;
52554;SDS011;38455;52.710;6.502;2022-11-15T08:35:17;43.00;;;23.50;;
52554;SDS011;38455;52.710;6.502;2022-11-15T08:37:43;40.85;;;22.92;;
52554;SDS011;38455;52.710;6.502;2022-11-15T08:40:09;41.75;;;24.15;;
52554;SDS011;38455;52.710;6.502;2022-11-15T08:42:36;40.22;;;23.50;;
52554;SDS011;38455;52.710;6.502;2022-11-15T08:45:02;42.42;;;23.15;;
52554;SDS011;38455;52.710;6.502;2022-11-15T08:47:28;44.08;;;23.88;;
52554;SDS011;38455;52.710;6.502;2022-11-15T08:49:54;41.78;;;24.00;;
52554;SDS011;38455;52.710;6.502;2022-11-15T08:52:19;40.00;;;22.67;;
52554;SDS011;38455;52.710;6.502;2022-11-15T08:54:45;40.53;;;22.83;;
52554;SDS011;38455;52.710;6.502;2022-11-15T08:57:11;44.92;;;24.35;;
52554;SDS011;38455;52.710;6.502;2022-11-15T08:59:37;42.28;;;23.02;;
52554;SDS011;38455;52.710;6.502;2022-11-15T09:02:03;40.95;;;22.52;;
52554;SDS011;38455;52.710;6.502;2022-11-15T09:04:29;41.10;;;21.80;;
52554;SDS011;38455;52.710;6.502;2022-11-15T09:06:55;42.53;;;21.65;;
52554;SDS011;38455;52.710;6.502;2022-11-15T09:09:20;38.50;;;21.77;;
52554;SDS011;38455;52.710;6.502;2022-11-15T09:11:46;39.08;;;21.05;;
52554;SDS011;38455;52.710;6.502;2022-11-15T09:14:12;38.58;;;20.88;;
52554;SDS011;38455;52.710;6.502;2022-11-15T09:16:38;36.63;;;20.55;;
52554;SDS011;38455;52.710;6.502;2022-11-15T09:19:04;35.53;;;20.73;;
52554;SDS011;38455;52.710;6.502;2022-11-15T09:21:30;35.40;;;20.92;;
52554;SDS011;38455;52.710;6.502;2022-11-15T09:23:56;36.17;;;20.45;;
52554;SDS011;38455;52.710;6.502;2022-11-15T09:26:22;33.00;;;20.40;;
52554;SDS011;38455;52.710;6.502;2022-11-15T09:28:47;30.60;;;19.27;;
52554;SDS011;38455;52.710;6.502;2022-11-15T09:31:13;35.78;;;18.33;;
52554;SDS011;38455;52.710;6.502;2022-11-15T09:33:39;32.70;;;18.75;;
52554;SDS011;38455;52.710;6.502;2022-11-15T09:36:08;27.83;;;18.33;;
52554;SDS011;38455;52.710;6.502;2022-11-15T09:38:34;30.88;;;19.10;;
52554;SDS011;38455;52.710;6.502;2022-11-15T09:48:53;29.05;;;16.95;;
52554;SDS011;38455;52.710;6.502;2022-11-15T09:51:35;26.42;;;17.25;;
52554;SDS011;38455;52.710;6.502;2022-11-15T09:54:56;26.20;;;16.10;;
52554;SDS011;38455;52.710;6.502;2022-11-15T09:57:09;24.98;;;16.92;;
52554;SDS011;38455;52.710;6.502;2022-11-15T10:05:11;20.58;;;15.07;;
52554;SDS011;38455;52.710;6.502;2022-11-15T10:10:46;22.65;;;15.45;;
52554;SDS011;38455;52.710;6.502;2022-11-15T10:13:16;25.17;;;14.57;;
52554;SDS011;38455;52.710;6.502;2022-11-15T10:15:51;21.70;;;15.45;;
52554;SDS011;38455;52.710;6.502;2022-11-15T10:20:55;21.90;;;13.80;;
52554;SDS011;38455;52.710;6.502;2022-11-15T10:23:25;19.98;;;13.95;;
52554;SDS011;38455;52.710;6.502;2022-11-15T10:26:00;20.88;;;13.40;;
52554;SDS011;38455;52.710;6.502;2022-11-15T10:28:27;17.52;;;10.35;;
52554;SDS011;38455;52.710;6.502;2022-11-15T10:30:56;18.60;;;9.57;;
52554;SDS011;38455;52.710;6.502;2022-11-15T10:41:14;11.17;;;5.03;;
52554;SDS011;38455;52.710;6.502;2022-11-15T10:46:36;7.10;;;3.60;;
52554;SDS011;38455;52.710;6.502;2022-11-15T10:51:40;9.00;;;3.60;;
52554;SDS011;38455;52.710;6.502;2022-11-15T10:54:10;5.00;;;3.03;;
52554;SDS011;38455;52.710;6.502;2022-11-15T10:56:38;5.97;;;2.97;;
52554;SDS011;38455;52.710;6.502;2022-11-15T10:59:09;8.90;;;3.80;;
52554;SDS011;38455;52.710;6.502;2022-11-15T11:01:46;6.15;;;3.33;;
52554;SDS011;38455;52.710;6.502;2022-11-15T11:04:13;4.68;;;3.25;;
52554;SDS011;38455;52.710;6.502;2022-11-15T11:06:49;6.32;;;3.63;;
52554;SDS011;38455;52.710;6.502;2022-11-15T11:09:40;7.47;;;3.13;;
52554;SDS011;38455;52.710;6.502;2022-11-15T11:12:11;7.57;;;3.17;;
52554;SDS011;38455;52.710;6.502;2022-11-15T11:14:38;10.18;;;3.20;;
52554;SDS011;38455;52.710;6.502;2022-11-15T11:19:43;6.60;;;3.30;;
52554;SDS011;38455;52.710;6.502;2022-11-15T11:38:24;8.77;;;3.60;;
52554;SDS011;38455;52.710;6.502;2022-11-15T11:41:00;8.20;;;3.78;;
52554;SDS011;38455;52.710;6.502;2022-11-15T11:49:17;7.43;;;3.90;;
52554;SDS011;38455;52.710;6.502;2022-11-15T11:52:00;6.55;;;3.78;;
52554;SDS011;38455;52.710;6.502;2022-11-15T11:54:37;8.55;;;3.70;;
52554;SDS011;38455;52.710;6.502;2022-11-15T11:57:13;9.70;;;3.38;;
52554;SDS011;38455;52.710;6.502;2022-11-15T12:00:03;6.68;;;3.33;;
52554;SDS011;38455;52.710;6.502;2022-11-15T12:02:43;7.70;;;3.08;;
52554;SDS011;38455;52.710;6.502;2022-11-15T12:05:23;9.63;;;2.88;;
52554;SDS011;38455;52.710;6.502;2022-11-15T12:10:48;5.28;;;2.58;;
52554;SDS011;38455;52.710;6.502;2022-11-15T12:13:24;7.47;;;2.73;;
52554;SDS011;38455;52.710;6.502;2022-11-15T12:18:27;4.63;;;2.75;;
52554;SDS011;38455;52.710;6.502;2022-11-15T12:20:59;6.93;;;2.35;;
52554;SDS011;38455;52.710;6.502;2022-11-15T12:23:31;5.20;;;3.00;;
52554;SDS011;38455;52.710;6.502;2022-11-15T12:26:11;5.75;;;2.60;;
52554;SDS011;38455;52.710;6.502;2022-11-15T12:31:30;6.93;;;2.42;;
52554;SDS011;38455;52.710;6.502;2022-11-15T12:33:58;4.88;;;2.17;;
52554;SDS011;38455;52.710;6.502;2022-11-15T12:36:47;5.13;;;2.60;;
52554;SDS011;38455;52.710;6.502;2022-11-15T12:39:15;4.10;;;2.15;;
52554;SDS011;38455;52.710;6.502;2022-11-15T12:41:43;4.28;;;2.30;;
52554;SDS011;38455;52.710;6.502;2022-11-15T12:47:04;3.25;;;2.00;;
52554;SDS011;38455;52.710;6.502;2022-11-15T12:49:48;3.72;;;2.10;;
52554;SDS011;38455;52.710;6.502;2022-11-15T12:52:14;6.43;;;1.70;;
52554;SDS011;38455;52.710;6.502;2022-11-15T13:17:38;4.88;;;1.30;;
52554;SDS011;38455;52.710;6.502;2022-11-15T13:25:16;1.95;;;1.27;;
52554;SDS011;38455;52.710;6.502;2022-11-15T13:27:52;2.05;;;0.93;;
52554;SDS011;38455;52.710;6.502;2022-11-15T13:30:24;3.10;;;1.15;;
52554;SDS011;38455;52.710;6.502;2022-11-15T13:32:51;8.07;;;1.40;;
52554;SDS011;38455;52.710;6.502;2022-11-15T13:35:25;5.28;;;1.42;;
52554;SDS011;38455;52.710;6.502;2022-11-15T13:37:53;2.53;;;1.10;;
52554;SDS011;38455;52.710;6.502;2022-11-15T13:42:49;3.95;;;1.00;;
52554;SDS011;38455;52.710;6.502;2022-11-15T13:45:16;3.55;;;1.08;;
52554;SDS011;38455;52.710;6.502;2022-11-15T13:47:43;3.22;;;0.98;;
52554;SDS011;38455;52.710;6.502;2022-11-15T13:50:12;8.70;;;1.27;;
52554;SDS011;38455;52.710;6.502;2022-11-15T13:52:38;4.00;;;0.95;;
52554;SDS011;38455;52.710;6.502;2022-11-15T13:55:18;3.70;;;1.00;;
52554;SDS011;38455;52.710;6.502;2022-11-15T13:57:51;5.18;;;1.00;;
52554;SDS011;38455;52.710;6.502;2022-11-15T14:02:55;2.33;;;1.05;;
52554;SDS011;38455;52.710;6.502;2022-11-15T14:05:23;4.05;;;1.15;;
52554;SDS011;38455;52.710;6.502;2022-11-15T14:10:44;3.10;;;1.15;;
52554;SDS011;38455;52.710;6.502;2022-11-15T14:13:11;2.40;;;1.40;;
52554;SDS011;38455;52.710;6.502;2022-11-15T14:16:12;3.90;;;1.50;;
52554;SDS011;38455;52.710;6.502;2022-11-15T14:18:43;5.30;;;1.65;;
52554;SDS011;38455;52.710;6.502;2022-11-15T14:21:14;5.07;;;1.60;;
52554;SDS011;38455;52.710;6.502;2022-11-15T14:23:40;5.22;;;1.85;;
52554;SDS011;38455;52.710;6.502;2022-11-15T14:26:11;3.88;;;1.65;;
52554;SDS011;38455;52.710;6.502;2022-11-15T14:28:52;6.93;;;1.90;;
52554;SDS011;38455;52.710;6.502;2022-11-15T14:31:17;3.15;;;2.03;;
52554;SDS011;38455;52.710;6.502;2022-11-15T14:33:45;3.15;;;2.05;;
52554;SDS011;38455;52.710;6.502;2022-11-15T14:36:12;4.60;;;2.47;;
52554;SDS011;38455;52.710;6.502;2022-11-15T14:38:40;5.13;;;2.75;;
52554;SDS011;38455;52.710;6.502;2022-11-15T14:41:18;5.20;;;3.10;;
52554;SDS011;38455;52.710;6.502;2022-11-15T14:43:49;5.78;;;3.60;;
52554;SDS011;38455;52.710;6.502;2022-11-15T14:46:15;6.85;;;3.60;;
52554;SDS011;38455;52.710;6.502;2022-11-15T14:48:41;5.93;;;3.65;;
52554;SDS011;38455;52.710;6.502;2022-11-15T14:51:13;6.93;;;4.30;;
52554;SDS011;38455;52.710;6.502;2022-11-15T14:53:42;6.68;;;4.25;;
52554;SDS011;38455;52.710;6.502;2022-11-15T14:56:09;7.95;;;4.28;;
52554;SDS011;38455;52.710;6.502;2022-11-15T14:58:35;6.05;;;4.60;;
52554;SDS011;38455;52.710;6.502;2022-11-15T15:01:15;10.77;;;4.85;;
52554;SDS011;38455;52.710;6.502;2022-11-15T15:03:46;5.25;;;4.40;;
52554;SDS011;38455;52.710;6.502;2022-11-15T15:06:12;10.00;;;4.57;;
52554;SDS011;38455;52.710;6.502;2022-11-15T15:08:39;9.73;;;4.85;;
52554;SDS011;38455;52.710;6.502;2022-11-15T15:11:16;7.15;;;5.00;;
52554;SDS011;38455;52.710;6.502;2022-11-15T15:13:49;5.88;;;4.60;;
52554;SDS011;38455;52.710;6.502;2022-11-15T15:16:15;7.35;;;5.22;;
52554;SDS011;38455;52.710;6.502;2022-11-15T15:18:41;8.18;;;5.20;;
52554;SDS011;38455;52.710;6.502;2022-11-15T15:21:40;9.02;;;5.55;;
52554;SDS011;38455;52.710;6.502;2022-11-15T15:23:59;10.75;;;4.95;;
52554;SDS011;38455;52.710;6.502;2022-11-15T15:26:24;8.02;;;4.93;;
52554;SDS011;38455;52.710;6.502;2022-11-15T15:28:50;7.80;;;5.22;;
52554;SDS011;38455;52.710;6.502;2022-11-15T15:31:16;10.32;;;5.25;;
52554;SDS011;38455;52.710;6.502;2022-11-15T15:33:43;8.20;;;5.25;;
52554;SDS011;38455;52.710;6.502;2022-11-15T15:36:12;6.65;;;4.90;;
52554;SDS011;38455;52.710;6.502;2022-11-15T15:38:39;7.35;;;4.88;;
52554;SDS011;38455;52.710;6.502;2022-11-15T15:41:12;10.52;;;6.43;;
52554;SDS011;38455;52.710;6.502;2022-11-15T15:43:39;12.85;;;5.75;;
52554;SDS011;38455;52.710;6.502;2022-11-15T15:46:13;9.32;;;4.70;;
52554;SDS011;38455;52.710;6.502;2022-11-15T15:48:40;10.02;;;4.40;;
52554;SDS011;38455;52.710;6.502;2022-11-15T15:51:06;10.77;;;4.75;;
52554;SDS011;38455;52.710;6.502;2022-11-15T15:53:31;6.32;;;4.05;;
52554;SDS011;38455;52.710;6.502;2022-11-15T15:55:57;6.72;;;3.80;;
52554;SDS011;38455;52.710;6.502;2022-11-15T15:58:23;6.32;;;3.88;;
52554;SDS011;38455;52.710;6.502;2022-11-15T16:00:49;10.68;;;4.60;;
52554;SDS011;38455;52.710;6.502;2022-11-15T16:03:15;7.00;;;3.42;;
52554;SDS011;38455;52.710;6.502;2022-11-15T16:05:40;7.32;;;3.20;;
52554;SDS011;38455;52.710;6.502;2022-11-15T16:08:11;5.30;;;2.85;;
52554;SDS011;38455;52.710;6.502;2022-11-15T16:10:45;6.20;;;3.05;;
52554;SDS011;38455;52.710;6.502;2022-11-15T16:13:11;4.85;;;2.20;;
52554;SDS011;38455;52.710;6.502;2022-11-15T16:15:37;3.25;;;2.00;;
52554;SDS011;38455;52.710;6.502;2022-11-15T16:18:03;4.57;;;2.30;;
52554;SDS011;38455;52.710;6.502;2022-11-15T16:23:02;4.32;;;2.00;;
52554;SDS011;38455;52.710;6.502;2022-11-15T16:25:30;5.22;;;1.92;;
52554;SDS011;38455;52.710;6.502;2022-11-15T16:27:59;5.20;;;1.40;;
52554;SDS011;38455;52.710;6.502;2022-11-15T16:30:24;5.38;;;1.75;;
52554;SDS011;38455;52.710;6.502;2022-11-15T16:32:50;4.70;;;1.60;;
52554;SDS011;38455;52.710;6.502;2022-11-15T16:35:16;5.22;;;1.52;;
52554;SDS011;38455;52.710;6.502;2022-11-15T16:37:42;6.10;;;1.70;;
52554;SDS011;38455;52.710;6.502;2022-11-15T16:40:29;3.28;;;1.42;;
52554;SDS011;38455;52.710;6.502;2022-11-15T16:42:57;4.60;;;1.88;;
52554;SDS011;38455;52.710;6.502;2022-11-15T16:45:24;3.47;;;1.45;;
52554;SDS011;38455;52.710;6.502;2022-11-15T16:47:50;3.92;;;1.33;;
52554;SDS011;38455;52.710;6.502;2022-11-15T16:50:21;4.22;;;1.33;;
52554;SDS011;38455;52.710;6.502;2022-11-15T16:52:52;3.25;;;1.30;;
52554;SDS011;38455;52.710;6.502;2022-11-15T16:55:20;3.67;;;1.45;;
52554;SDS011;38455;52.710;6.502;2022-11-15T16:57:47;2.25;;;1.20;;
52554;SDS011;38455;52.710;6.502;2022-11-15T17:00:13;3.15;;;1.25;;
52554;SDS011;38455;52.710;6.502;2022-11-15T17:02:41;4.93;;;1.40;;
52554;SDS011;38455;52.710;6.502;2022-11-15T17:05:08;2.33;;;1.30;;
52554;SDS011;38455;52.710;6.502;2022-11-15T17:07:34;2.97;;;1.38;;